createdAt,value
2017-05-06T00:00:10.280Z,43.06
2017-05-06T00:01:10.617Z,42.68
2017-05-06T00:02:10.334Z,42.77
2017-05-06T00:03:10.674Z,43.06
2017-05-06T00:04:10.708Z,43.16
2017-05-06T00:05:10.729Z,43.06
2017-05-06T00:06:10.762Z,43.06
2017-05-06T00:07:10.470Z,43.06
2017-05-06T00:08:10.812Z,42.97
2017-05-06T00:09:10.839Z,43.35
2017-05-06T00:10:10.552Z,43.06
2017-05-06T00:11:10.573Z,43.16
2017-05-06T00:12:10.925Z,43.06
2017-05-06T00:13:10.954Z,43.06
2017-05-06T00:14:10.661Z,43.06
2017-05-06T00:15:10.692Z,43.16
2017-05-06T00:16:11.037Z,42.87
2017-05-06T00:17:11.060Z,43.06
2017-05-06T00:18:11.090Z,42.97
2017-05-06T00:19:11.120Z,43.16
2017-05-06T00:20:11.143Z,43.16
2017-05-06T00:21:10.845Z,43.16
2017-05-06T00:22:11.194Z,43.26
2017-05-06T00:23:10.912Z,43.26
2017-05-06T00:24:11.249Z,43.06
2017-05-06T00:25:11.284Z,43.06
2017-05-06T00:26:11.305Z,43.06
2017-05-06T00:27:11.338Z,43.35
2017-05-06T00:28:11.359Z,43.16
2017-05-06T00:29:11.391Z,43.06
2017-05-06T00:30:11.420Z,43.16
2017-05-06T00:31:11.444Z,43.26
2017-05-06T00:32:11.476Z,43.06
2017-05-06T00:33:11.497Z,43.16
2017-05-06T00:34:11.523Z,43.16
2017-05-06T00:35:11.235Z,43.26
2017-05-06T00:36:11.572Z,43.35
2017-05-06T00:37:11.616Z,43.35
2017-05-06T00:38:11.321Z,43.06
2017-05-06T00:39:11.923Z,42.97
2017-05-06T00:40:11.696Z,43.35
2017-05-06T00:41:11.715Z,43.06
2017-05-06T00:42:11.428Z,43.06
2017-05-06T00:43:11.778Z,43.06
2017-05-06T00:44:12.046Z,42.87
2017-05-06T00:45:11.516Z,43.06
2017-05-06T00:46:11.847Z,43.16
2017-05-06T00:47:11.918Z,43.16
2017-05-06T00:48:11.917Z,43.35
2017-05-06T00:49:12.186Z,43.26
2017-05-06T00:50:11.967Z,43.16
2017-05-06T00:51:11.988Z,43.26
2017-05-06T00:52:12.016Z,43.26
2017-05-06T00:53:12.052Z,43.35
2017-05-06T00:54:12.321Z,42.97
2017-05-06T00:55:12.098Z,43.16
2017-05-06T00:56:12.124Z,43.35
2017-05-06T00:57:12.161Z,43.26
2017-05-06T00:58:12.183Z,43.16
2017-05-06T00:59:12.465Z,43.35
2017-05-06T01:00:12.242Z,43.16
2017-05-06T01:01:12.263Z,43.35
2017-05-06T01:02:12.297Z,43.45
2017-05-06T01:03:12.005Z,43.35
2017-05-06T01:04:12.602Z,43.24
2017-05-06T01:05:12.374Z,43.45
2017-05-06T01:06:12.410Z,43.54
2017-05-06T01:07:12.432Z,43.16
2017-05-06T01:08:12.460Z,43.35
2017-05-06T01:09:12.420Z,43.52
2017-05-06T01:10:12.511Z,43.04
2017-05-06T01:11:12.223Z,43.35
2017-05-06T01:12:12.593Z,43.54
2017-05-06T01:13:12.597Z,43.26
2017-05-06T01:14:12.869Z,43.24
2017-05-06T01:15:12.645Z,43.14
2017-05-06T01:16:12.362Z,43.04
2017-05-06T01:17:12.700Z,43.24
2017-05-06T01:18:12.732Z,43.35
2017-05-06T01:19:12.757Z,43.43
2017-05-06T01:20:12.781Z,43.24
2017-05-06T01:21:12.810Z,43.35
2017-05-06T01:22:12.526Z,43.14
2017-05-06T01:23:12.547Z,43.33
2017-05-06T01:24:12.928Z,43.33
2017-05-06T01:25:12.918Z,43.52
2017-05-06T01:26:12.631Z,43.26
2017-05-06T01:27:12.979Z,43.33
2017-05-06T01:28:12.999Z,43.35
2017-05-06T01:29:13.032Z,43.33
2017-05-06T01:30:13.053Z,43.33
2017-05-06T01:31:13.086Z,43.33
2017-05-06T01:32:12.797Z,43.33
2017-05-06T01:33:13.139Z,43.33
2017-05-06T01:34:13.168Z,43.52
2017-05-06T01:35:13.195Z,43.45
2017-05-06T01:36:13.226Z,43.33
2017-05-06T01:37:13.242Z,43.33
2017-05-06T01:38:13.305Z,43.14
2017-05-06T01:39:13.304Z,43.16
2017-05-06T01:40:13.333Z,43.62
2017-05-06T01:41:13.041Z,43.33
2017-05-06T01:42:13.388Z,43.43
2017-05-06T01:43:13.412Z,43.43
2017-05-06T01:44:13.125Z,43.52
2017-05-06T01:45:13.465Z,42.94
2017-05-06T01:46:13.493Z,43.14
2017-05-06T01:47:13.514Z,43.52
2017-05-06T01:48:13.547Z,43.04
2017-05-06T01:49:13.572Z,43.24
2017-05-06T01:50:13.601Z,43.43
2017-05-06T01:51:13.624Z,43.43
2017-05-06T01:52:13.338Z,43.43
2017-05-06T01:53:13.682Z,43.33
2017-05-06T01:54:13.716Z,43.43
2017-05-06T01:55:13.425Z,43.33
2017-05-06T01:56:13.764Z,43.52
2017-05-06T01:57:13.788Z,43.52
2017-05-06T01:58:13.827Z,43.33
2017-05-06T01:59:13.525Z,43.52
2017-05-06T02:00:13.870Z,43.43
2017-05-06T02:01:13.585Z,43.24
2017-05-06T02:02:13.929Z,43.52
2017-05-06T02:03:13.954Z,43.43
2017-05-06T02:04:14.009Z,43.33
2017-05-06T02:05:13.697Z,43.62
2017-05-06T02:06:14.032Z,43.24
2017-05-06T02:07:14.065Z,43.14
2017-05-06T02:08:13.774Z,43.81
2017-05-06T02:09:14.116Z,43.81
2017-05-06T02:10:14.139Z,43.62
2017-05-06T02:11:13.856Z,43.52
2017-05-06T02:12:14.198Z,43.43
2017-05-06T02:13:14.218Z,43.52
2017-05-06T02:14:13.930Z,43.72
2017-05-06T02:15:14.282Z,43.72
2017-05-06T02:16:14.301Z,43.24
2017-05-06T02:17:14.338Z,43.91
2017-05-06T02:18:14.361Z,43.43
2017-05-06T02:19:14.396Z,43.52
2017-05-06T02:20:14.098Z,43.91
2017-05-06T02:21:14.444Z,43.81
2017-05-06T02:22:14.469Z,43.72
2017-05-06T02:23:14.503Z,43.81
2017-05-06T02:24:14.530Z,43.81
2017-05-06T02:25:14.551Z,43.81
2017-05-06T02:26:14.575Z,43.72
2017-05-06T02:27:14.605Z,43.62
2017-05-06T02:28:14.634Z,43.72
2017-05-06T02:29:14.658Z,43.81
2017-05-06T02:30:14.375Z,43.72
2017-05-06T02:31:14.716Z,43.72
2017-05-06T02:32:14.737Z,44.01
2017-05-06T02:33:14.767Z,44.01
2017-05-06T02:34:14.470Z,43.91
2017-05-06T02:35:14.823Z,43.72
2017-05-06T02:36:14.533Z,43.81
2017-05-06T02:37:14.561Z,43.62
2017-05-06T02:38:14.906Z,43.91
2017-05-06T02:39:14.939Z,43.62
2017-05-06T02:40:14.959Z,43.72
2017-05-06T02:41:14.983Z,43.62
2017-05-06T02:42:15.007Z,43.81
2017-05-06T02:43:15.033Z,43.72
2017-05-06T02:44:15.058Z,43.81
2017-05-06T02:45:15.029Z,43.52
2017-05-06T02:46:15.123Z,43.72
2017-05-06T02:47:15.159Z,43.72
2017-05-06T02:48:14.857Z,43.72
2017-05-06T02:49:15.188Z,43.81
2017-05-06T02:50:15.477Z,43.62
2017-05-06T02:51:15.251Z,43.81
2017-05-06T02:52:15.279Z,43.72
2017-05-06T02:53:15.308Z,43.62
2017-05-06T02:54:15.334Z,43.72
2017-05-06T02:55:15.612Z,43.72
2017-05-06T02:56:15.071Z,43.72
2017-05-06T02:57:15.421Z,43.81
2017-05-06T02:58:15.439Z,43.91
2017-05-06T02:59:15.150Z,43.62
2017-05-06T03:00:15.750Z,43.81
2017-05-06T03:01:15.207Z,43.62
2017-05-06T03:02:15.554Z,43.72
2017-05-06T03:03:15.581Z,43.62
2017-05-06T03:04:15.600Z,43.72
2017-05-06T03:05:15.886Z,43.62
2017-05-06T03:06:15.663Z,43.62
2017-05-06T03:07:15.685Z,43.81
2017-05-06T03:08:15.712Z,44.01
2017-05-06T03:09:15.741Z,43.72
2017-05-06T03:10:15.773Z,43.62
2017-05-06T03:11:15.794Z,43.62
2017-05-06T03:12:15.830Z,43.62
2017-05-06T03:13:15.844Z,43.72
2017-05-06T03:14:15.878Z,43.81
2017-05-06T03:15:15.897Z,43.5
2017-05-06T03:16:15.609Z,43.81
2017-05-06T03:17:15.954Z,43.52
2017-05-06T03:18:15.979Z,43.52
2017-05-06T03:19:16.008Z,43.6
2017-05-06T03:20:16.034Z,43.81
2017-05-06T03:21:15.745Z,43.91
2017-05-06T03:22:16.090Z,43.43
2017-05-06T03:23:16.113Z,43.43
2017-05-06T03:24:16.140Z,43.12
2017-05-06T03:25:16.170Z,43.43
2017-05-06T03:26:16.198Z,43.72
2017-05-06T03:27:16.219Z,43.33
2017-05-06T03:28:16.253Z,43.21
2017-05-06T03:29:15.957Z,43.43
2017-05-06T03:30:16.298Z,43.72
2017-05-06T03:31:16.334Z,43.72
2017-05-06T03:32:16.046Z,43.72
2017-05-06T03:33:16.388Z,43.81
2017-05-06T03:34:16.412Z,43.72
2017-05-06T03:35:16.120Z,44.01
2017-05-06T03:36:16.155Z,44.01
2017-05-06T03:37:16.497Z,44.01
2017-05-06T03:38:16.522Z,43.5
2017-05-06T03:39:16.544Z,43.31
2017-05-06T03:40:16.575Z,43.31
2017-05-06T03:41:16.290Z,43.43
2017-05-06T03:42:16.631Z,43.89
2017-05-06T03:43:16.343Z,44.08
2017-05-06T03:44:16.685Z,43.79
2017-05-06T03:45:16.707Z,43.21
2017-05-06T03:46:16.725Z,43.5
2017-05-06T03:47:16.770Z,43.79
2017-05-06T03:48:16.794Z,43.89
2017-05-06T03:49:16.500Z,43.6
2017-05-06T03:50:16.839Z,43.89
2017-05-06T03:51:16.867Z,43.52
2017-05-06T03:52:16.901Z,43.89
2017-05-06T03:53:16.922Z,43.7
2017-05-06T03:54:16.955Z,43.89
2017-05-06T03:55:16.660Z,43.79
2017-05-06T03:56:17.008Z,43.79
2017-05-06T03:57:16.717Z,43.6
2017-05-06T03:58:17.058Z,43.7
2017-05-06T03:59:17.083Z,43.5
2017-05-06T04:00:17.114Z,43.79
2017-05-06T04:01:17.142Z,43.7
2017-05-06T04:02:17.169Z,43.7
2017-05-06T04:03:17.194Z,43.7
2017-05-06T04:04:17.222Z,43.7
2017-05-06T04:05:17.247Z,43.7
2017-05-06T04:06:17.272Z,43.5
2017-05-06T04:07:16.982Z,43.79
2017-05-06T04:08:17.013Z,43.41
2017-05-06T04:09:17.042Z,43.41
2017-05-06T04:10:17.064Z,43.89
2017-05-06T04:11:17.391Z,43.89
2017-05-06T04:12:17.416Z,43.79
2017-05-06T04:13:17.445Z,43.7
2017-05-06T04:14:17.486Z,43.7
2017-05-06T04:15:17.186Z,43.6
2017-05-06T04:16:17.210Z,43.98
2017-05-06T04:17:17.240Z,43.7
2017-05-06T04:18:17.581Z,43.89
2017-05-06T04:19:17.298Z,43.79
2017-05-06T04:20:17.635Z,43.7
2017-05-06T04:21:17.656Z,43.6
2017-05-06T04:22:17.685Z,43.6
2017-05-06T04:23:17.717Z,43.7
2017-05-06T04:24:17.746Z,43.79
2017-05-06T04:25:17.458Z,43.7
2017-05-06T04:26:18.048Z,43.89
2017-05-06T04:27:17.825Z,43.79
2017-05-06T04:28:17.852Z,44.18
2017-05-06T04:29:17.876Z,43.89
2017-05-06T04:30:17.899Z,43.98
2017-05-06T04:31:18.196Z,44.27
2017-05-06T04:32:17.959Z,44.08
2017-05-06T04:33:17.985Z,44.08
2017-05-06T04:34:17.701Z,43.89
2017-05-06T04:35:18.038Z,43.98
2017-05-06T04:36:18.318Z,43.89
2017-05-06T04:37:18.091Z,43.98
2017-05-06T04:38:18.120Z,43.89
2017-05-06T04:39:18.145Z,43.79
2017-05-06T04:40:18.175Z,43.79
2017-05-06T04:41:18.451Z,43.81
2017-05-06T04:42:18.224Z,43.89
2017-05-06T04:43:18.251Z,43.7
2017-05-06T04:44:18.280Z,43.81
2017-05-06T04:45:18.307Z,43.72
2017-05-06T04:46:18.581Z,43.6
2017-05-06T04:47:18.352Z,43.79
2017-05-06T04:48:18.068Z,43.81
2017-05-06T04:49:18.106Z,43.81
2017-05-06T04:50:18.133Z,43.43
2017-05-06T04:51:18.713Z,43.81
2017-05-06T04:52:18.496Z,43.52
2017-05-06T04:53:18.220Z,44.01
2017-05-06T04:54:18.238Z,43.62
2017-05-06T04:55:18.261Z,43.62
2017-05-06T04:56:18.873Z,43.81
2017-05-06T04:57:18.314Z,43.81
2017-05-06T04:58:18.655Z,43.62
2017-05-06T04:59:18.683Z,44.01
2017-05-06T05:00:18.709Z,43.72
2017-05-06T05:01:18.989Z,43.91
2017-05-06T05:02:18.762Z,43.72
2017-05-06T05:03:18.795Z,43.43
2017-05-06T05:04:18.501Z,43.04
2017-05-06T05:05:18.844Z,43.33
2017-05-06T05:06:18.871Z,43.52
2017-05-06T05:07:18.902Z,43.43
2017-05-06T05:08:18.927Z,43.52
2017-05-06T05:09:18.943Z,43.33
2017-05-06T05:10:18.981Z,43.33
2017-05-06T05:11:19.009Z,43.24
2017-05-06T05:12:19.040Z,43.24
2017-05-06T05:13:19.062Z,43.33
2017-05-06T05:14:19.083Z,43.33
2017-05-06T05:15:18.809Z,43.33
2017-05-06T05:16:19.139Z,43.43
2017-05-06T05:17:19.166Z,43.24
2017-05-06T05:18:18.883Z,43.24
2017-05-06T05:19:18.908Z,43.24
2017-05-06T05:20:19.249Z,43.43
2017-05-06T05:21:19.277Z,43.16
2017-05-06T05:22:19.302Z,43.14
2017-05-06T05:23:19.334Z,43.16
2017-05-06T05:24:19.043Z,43.06
2017-05-06T05:25:19.384Z,43.14
2017-05-06T05:26:19.412Z,42.94
2017-05-06T05:27:19.434Z,42.94
2017-05-06T05:28:19.163Z,43.24
2017-05-06T05:29:19.498Z,42.97
2017-05-06T05:30:19.520Z,43.06
2017-05-06T05:31:19.536Z,43.26
2017-05-06T05:32:19.261Z,42.97
2017-05-06T05:33:19.289Z,43.26
2017-05-06T05:34:19.628Z,43.16
2017-05-06T05:35:19.655Z,43.16
2017-05-06T05:36:19.681Z,43.06
2017-05-06T05:37:19.397Z,43.06
2017-05-06T05:38:19.737Z,43.16
2017-05-06T05:39:19.767Z,43.06
2017-05-06T05:40:19.796Z,43.16
2017-05-06T05:41:19.809Z,42.97
2017-05-06T05:42:19.838Z,42.97
2017-05-06T05:43:19.557Z,43.16
2017-05-06T05:44:19.899Z,43.16
2017-05-06T05:45:19.924Z,43.06
2017-05-06T05:46:19.952Z,43.16
2017-05-06T05:47:19.977Z,43.26
2017-05-06T05:48:20.006Z,43.35
2017-05-06T05:49:20.035Z,43.28
2017-05-06T05:50:20.063Z,43.35
2017-05-06T05:51:20.085Z,43.35
2017-05-06T05:52:19.805Z,43.28
2017-05-06T05:53:20.139Z,43.28
2017-05-06T05:54:20.163Z,43.18
2017-05-06T05:55:20.191Z,43.08
2017-05-06T05:56:20.228Z,43.08
2017-05-06T05:57:20.253Z,43.28
2017-05-06T05:58:20.281Z,42.6
2017-05-06T05:59:20.305Z,43.08
2017-05-06T06:00:20.335Z,43.08
2017-05-06T06:01:20.365Z,43.37
2017-05-06T06:02:20.397Z,42.79
2017-05-06T06:03:20.418Z,43.47
2017-05-06T06:04:20.441Z,42.99
2017-05-06T06:05:20.470Z,42.99
2017-05-06T06:06:20.502Z,43.08
2017-05-06T06:07:20.467Z,43.08
2017-05-06T06:08:20.553Z,43.28
2017-05-06T06:09:20.585Z,42.99
2017-05-06T06:10:20.610Z,43.08
2017-05-06T06:11:20.640Z,43.28
2017-05-06T06:12:20.917Z,42.72
2017-05-06T06:13:20.376Z,43.01
2017-05-06T06:14:20.718Z,43.3
2017-05-06T06:15:20.746Z,43.2
2017-05-06T06:16:20.772Z,43.2
2017-05-06T06:17:20.737Z,43.1
2017-05-06T06:18:20.830Z,43.4
2017-05-06T06:19:20.537Z,42.72
2017-05-06T06:20:20.882Z,43.4
2017-05-06T06:21:20.913Z,43.4
2017-05-06T06:22:21.188Z,42.82
2017-05-06T06:23:20.966Z,42.62
2017-05-06T06:24:20.678Z,42.72
2017-05-06T06:25:20.711Z,42.72
2017-05-06T06:26:20.731Z,42.82
2017-05-06T06:27:21.020Z,42.33
2017-05-06T06:28:20.792Z,42.33
2017-05-06T06:29:21.130Z,42.43
2017-05-06T06:30:21.150Z,42.43
2017-05-06T06:31:20.870Z,42.62
2017-05-06T06:32:21.149Z,42.24
2017-05-06T06:33:21.242Z,42.24
2017-05-06T06:34:21.270Z,42.62
2017-05-06T06:35:21.298Z,42.62
2017-05-06T06:36:21.323Z,42.62
2017-05-06T06:37:21.599Z,42.43
2017-05-06T06:38:21.381Z,42.52
2017-05-06T06:39:21.401Z,42.52
2017-05-06T06:40:21.431Z,42.43
2017-05-06T06:41:21.463Z,42.33
2017-05-06T06:42:21.756Z,42.33
2017-05-06T06:43:21.512Z,42.43
2017-05-06T06:44:21.544Z,42.24
2017-05-06T06:45:21.575Z,42.43
2017-05-06T06:46:21.603Z,41.85
2017-05-06T06:47:21.878Z,42.62
2017-05-06T06:48:21.661Z,42.62
2017-05-06T06:49:21.680Z,42.43
2017-05-06T06:50:21.402Z,41.85
2017-05-06T06:51:21.739Z,42.33
2017-05-06T06:52:22.019Z,41.85
2017-05-06T06:53:21.793Z,41.75
2017-05-06T06:54:21.821Z,41.85
2017-05-06T06:55:21.850Z,41.94
2017-05-06T06:56:21.879Z,41.85
2017-05-06T06:57:21.904Z,41.85
2017-05-06T06:58:21.931Z,41.85
2017-05-06T06:59:21.964Z,41.75
2017-05-06T07:00:21.987Z,41.85
2017-05-06T07:01:22.015Z,42.43
2017-05-06T07:02:22.038Z,42.52
2017-05-06T07:03:22.073Z,42.14
2017-05-06T07:04:22.096Z,41.75
2017-05-06T07:05:21.810Z,42.62
2017-05-06T07:06:22.154Z,42.52
2017-05-06T07:07:21.871Z,42.52
2017-05-06T07:08:22.203Z,42.24
2017-05-06T07:09:22.229Z,42.43
2017-05-06T07:10:22.263Z,42.43
2017-05-06T07:11:22.291Z,41.94
2017-05-06T07:12:22.315Z,42.52
2017-05-06T07:13:22.348Z,41.94
2017-05-06T07:14:22.377Z,42.62
2017-05-06T07:15:22.402Z,42.24
2017-05-06T07:16:22.436Z,42.43
2017-05-06T07:17:22.460Z,42.43
2017-05-06T07:18:22.486Z,42.62
2017-05-06T07:19:22.515Z,41.85
2017-05-06T07:20:22.540Z,41.85
2017-05-06T07:21:22.571Z,42.62
2017-05-06T07:22:22.604Z,42.43
2017-05-06T07:23:22.628Z,41.75
2017-05-06T07:24:22.681Z,42.24
2017-05-06T07:25:22.681Z,42.24
2017-05-06T07:26:22.711Z,42.24
2017-05-06T07:27:22.747Z,41.85
2017-05-06T07:28:22.768Z,41.85
2017-05-06T07:29:22.796Z,42.43
2017-05-06T07:30:22.820Z,42.43
2017-05-06T07:31:22.855Z,42.14
2017-05-06T07:32:22.879Z,42.43
2017-05-06T07:33:22.910Z,41.94
2017-05-06T07:34:22.936Z,42.52
2017-05-06T07:35:22.961Z,42.43
2017-05-06T07:36:22.991Z,42.24
2017-05-06T07:37:23.038Z,41.94
2017-05-06T07:38:23.048Z,42.52
2017-05-06T07:39:23.072Z,41.85
2017-05-06T07:40:23.093Z,42.24
2017-05-06T07:41:23.354Z,42.24
2017-05-06T07:42:22.845Z,41.94
2017-05-06T07:43:23.179Z,42.33
2017-05-06T07:44:22.932Z,42.52
2017-05-06T07:45:37.848Z,42.62
2017-05-06T07:46:23.328Z,42.24
2017-05-06T07:47:23.327Z,42.33
2017-05-06T07:48:23.345Z,42.04
2017-05-06T07:49:23.060Z,41.94
2017-05-06T07:50:24.448Z,42.62
2017-05-06T07:51:23.872Z,42.43
2017-05-06T07:52:24.349Z,42.62
2017-05-06T07:54:23.721Z,41.85
2017-05-06T07:55:23.757Z,41.85
2017-05-06T07:56:38.133Z,42.52
2017-05-06T07:57:23.821Z,42.62
2017-05-06T07:59:24.076Z,41.94
2017-05-06T08:00:23.903Z,42.62
2017-05-06T08:02:23.775Z,42.52
2017-05-06T08:03:23.753Z,42.62
2017-05-06T08:04:23.733Z,42.14
2017-05-06T08:06:24.059Z,42.52
2017-05-06T08:07:23.899Z,42.33
2017-05-06T08:08:23.911Z,42.52
2017-05-06T08:09:24.818Z,42.62
2017-05-06T08:10:23.958Z,42.62
2017-05-06T08:11:24.794Z,41.75
2017-05-06T08:13:38.607Z,41.75
2017-05-06T08:14:25.177Z,42.24
2017-05-06T08:15:24.080Z,42.62
2017-05-06T08:16:24.139Z,42.04
2017-05-06T08:17:24.362Z,41.94
2017-05-06T08:18:24.424Z,41.87
2017-05-06T08:19:24.132Z,42.62
2017-05-06T08:20:24.243Z,41.87
2017-05-06T08:21:24.240Z,41.77
2017-05-06T08:22:24.269Z,41.87
2017-05-06T08:23:24.304Z,42.35
2017-05-06T08:24:24.588Z,42.45
2017-05-06T08:25:24.360Z,42.55
2017-05-06T08:26:24.388Z,42.35
2017-05-06T08:27:24.414Z,42.45
2017-05-06T08:28:24.131Z,42.35
2017-05-06T08:29:24.723Z,42.35
2017-05-06T08:30:24.188Z,42.45
2017-05-06T08:31:24.534Z,42.45
2017-05-06T08:32:24.557Z,42.35
2017-05-06T08:33:24.271Z,42.45
2017-05-06T08:34:24.551Z,42.25
2017-05-06T08:35:24.329Z,42.25
2017-05-06T08:36:24.660Z,41.97
2017-05-06T08:37:24.698Z,42.45
2017-05-06T08:38:24.730Z,42.65
2017-05-06T08:39:25.020Z,42.55
2017-05-06T08:40:24.782Z,42.16
2017-05-06T08:41:24.809Z,42.16
2017-05-06T08:42:24.837Z,42.45
2017-05-06T08:43:24.550Z,41.97
2017-05-06T08:44:24.891Z,42.16
2017-05-06T08:45:24.921Z,42.45
2017-05-06T08:46:24.950Z,42.35
2017-05-06T08:47:24.666Z,42.25
2017-05-06T08:48:25.003Z,42.35
2017-05-06T08:49:25.036Z,42.25
2017-05-06T08:50:25.072Z,42.35
2017-05-06T08:51:25.093Z,42.35
2017-05-06T08:52:24.805Z,42.55
2017-05-06T08:53:25.142Z,42.45
2017-05-06T08:54:25.167Z,42.55
2017-05-06T08:55:25.203Z,42.65
2017-05-06T08:56:25.232Z,42.45
2017-05-06T08:57:25.261Z,42.65
2017-05-06T08:58:25.294Z,42.55
2017-05-06T08:59:25.319Z,42.45
2017-05-06T09:00:25.351Z,42.35
2017-05-06T09:01:25.382Z,42.45
2017-05-06T09:02:25.403Z,42.45
2017-05-06T09:03:25.430Z,42.55
2017-05-06T09:04:25.142Z,42.65
2017-05-06T09:05:25.490Z,42.65
2017-05-06T09:06:25.515Z,42.35
2017-05-06T09:07:25.544Z,42.65
2017-05-06T09:08:25.573Z,42.35
2017-05-06T09:09:25.598Z,42.55
2017-05-06T09:10:25.632Z,42.45
2017-05-06T09:11:25.656Z,42.25
2017-05-06T09:12:25.713Z,42.55
2017-05-06T09:13:25.711Z,42.65
2017-05-06T09:14:25.745Z,42.45
2017-05-06T09:15:25.775Z,42.45
2017-05-06T09:16:25.803Z,42.55
2017-05-06T09:17:25.518Z,42.65
2017-05-06T09:18:25.858Z,42.55
2017-05-06T09:19:25.574Z,42.65
2017-05-06T09:20:25.915Z,42.65
2017-05-06T09:21:25.940Z,42.45
2017-05-06T09:22:25.969Z,42.35
2017-05-06T09:23:25.681Z,42.35
2017-05-06T09:24:26.025Z,42.55
2017-05-06T09:25:26.050Z,42.25
2017-05-06T09:26:26.084Z,42.35
2017-05-06T09:27:25.795Z,42.25
2017-05-06T09:28:25.829Z,42.65
2017-05-06T09:29:26.166Z,42.65
2017-05-06T09:30:26.194Z,42.55
2017-05-06T09:31:26.223Z,42.25
2017-05-06T09:32:26.251Z,42.16
2017-05-06T09:33:26.285Z,42.35
2017-05-06T09:34:26.311Z,42.07
2017-05-06T09:35:26.339Z,41.77
2017-05-06T09:36:26.371Z,42.45
2017-05-06T09:37:26.397Z,42.35
2017-05-06T09:38:26.429Z,42.25
2017-05-06T09:39:26.449Z,42.45
2017-05-06T09:40:26.479Z,42.65
2017-05-06T09:41:26.505Z,42.55
2017-05-06T09:42:26.536Z,42.25
2017-05-06T09:43:26.565Z,42.55
2017-05-06T09:44:26.589Z,42.45
2017-05-06T09:45:26.310Z,42.45
2017-05-06T09:46:26.648Z,42.35
2017-05-06T09:47:26.361Z,42.35
2017-05-06T09:48:26.708Z,42.45
2017-05-06T09:49:26.432Z,42.35
2017-05-06T09:50:27.014Z,42.07
2017-05-06T09:51:26.791Z,42.25
2017-05-06T09:52:26.811Z,42.16
2017-05-06T09:53:26.845Z,42.55
2017-05-06T09:54:26.872Z,42.55
2017-05-06T09:55:26.837Z,42.74
2017-05-06T09:56:26.936Z,42.65
2017-05-06T09:57:26.957Z,42.35
2017-05-06T09:58:26.685Z,42.65
2017-05-06T09:59:27.021Z,42.25
2017-05-06T10:00:26.991Z,42.55
2017-05-06T10:01:27.076Z,42.65
2017-05-06T10:02:27.103Z,42.25
2017-05-06T10:03:27.132Z,42.16
2017-05-06T10:04:27.169Z,42.65
2017-05-06T10:05:27.445Z,42.25
2017-05-06T10:06:26.902Z,42.16
2017-05-06T10:07:27.249Z,42.25
2017-05-06T10:08:26.964Z,42.65
2017-05-06T10:09:27.307Z,42.55
2017-05-06T10:10:27.581Z,42.65
2017-05-06T10:11:27.050Z,42.45
2017-05-06T10:12:27.391Z,42.55
2017-05-06T10:13:27.100Z,42.45
2017-05-06T10:14:27.442Z,42.25
2017-05-06T10:15:27.726Z,42.55
2017-05-06T10:16:27.503Z,42.55
2017-05-06T10:17:27.531Z,42.24
2017-05-06T10:18:27.565Z,42.65
2017-05-06T10:19:27.590Z,42.55
2017-05-06T10:20:27.873Z,42.35
2017-05-06T10:21:27.635Z,42.55
2017-05-06T10:22:27.675Z,42.62
2017-05-06T10:23:27.388Z,42.16
2017-05-06T10:24:27.729Z,42.25
2017-05-06T10:25:28.018Z,42.16
2017-05-06T10:26:27.786Z,42.62
2017-05-06T10:27:27.815Z,42.65
2017-05-06T10:28:27.845Z,42.25
2017-05-06T10:29:27.873Z,42.25
2017-05-06T10:30:27.902Z,42.55
2017-05-06T10:31:27.917Z,42.35
2017-05-06T10:32:28.017Z,42.55
2017-05-06T10:33:27.981Z,42.65
2017-05-06T10:34:27.704Z,42.45
2017-05-06T10:35:27.731Z,42.45
2017-05-06T10:36:28.070Z,42.35
2017-05-06T10:37:28.099Z,41.87
2017-05-06T10:38:28.127Z,42.55
2017-05-06T10:39:28.156Z,42.35
2017-05-06T10:40:28.185Z,42.35
2017-05-06T10:41:28.209Z,42.16
2017-05-06T10:42:28.294Z,42.07
2017-05-06T10:43:28.272Z,42.25
2017-05-06T10:44:28.301Z,42.16
2017-05-06T10:45:28.013Z,41.39
2017-05-06T10:46:28.359Z,41.67
2017-05-06T10:47:28.392Z,41.58
2017-05-06T10:48:28.440Z,42.28
2017-05-06T10:49:28.441Z,42.25
2017-05-06T10:50:28.469Z,41.97
2017-05-06T10:51:28.498Z,41.97
2017-05-06T10:52:28.526Z,41.99
2017-05-06T10:53:28.555Z,41.79
2017-05-06T10:54:28.583Z,42.18
2017-05-06T10:55:28.612Z,42.28
2017-05-06T10:56:28.642Z,42.96
2017-05-06T10:57:28.671Z,42.66
2017-05-06T10:58:28.701Z,43.23
2017-05-06T10:59:28.728Z,43.44
2017-05-06T11:00:28.449Z,43.44
2017-05-06T11:01:28.474Z,43.92
2017-05-06T11:02:28.824Z,43.99
2017-05-06T11:03:28.844Z,43.73
2017-05-06T11:04:28.863Z,44.7
2017-05-06T11:05:28.585Z,44.96
2017-05-06T11:06:28.926Z,44.4
2017-05-06T11:07:28.959Z,44.89
2017-05-06T11:08:28.677Z,45.66
2017-05-06T11:09:29.020Z,45.18
2017-05-06T11:10:29.049Z,45.28
2017-05-06T11:11:29.073Z,45.37
2017-05-06T11:12:29.102Z,45.86
2017-05-06T11:13:28.819Z,45.86
2017-05-06T11:14:29.164Z,45.64
2017-05-06T11:15:29.189Z,46.44
2017-05-06T11:16:28.906Z,47.02
2017-05-06T11:17:28.942Z,46.22
2017-05-06T11:18:29.274Z,46.44
2017-05-06T11:19:29.301Z,46.8
2017-05-06T11:20:29.337Z,46.61
2017-05-06T11:21:29.362Z,46.61
2017-05-06T11:22:29.391Z,47.28
2017-05-06T11:23:29.412Z,47.6
2017-05-06T11:24:29.127Z,47.41
2017-05-06T11:25:29.468Z,47.38
2017-05-06T11:26:29.531Z,47.67
2017-05-06T11:27:29.531Z,47.86
2017-05-06T11:28:29.551Z,47.5
2017-05-06T11:29:29.588Z,47.58
2017-05-06T11:30:29.617Z,47.77
2017-05-06T11:31:29.645Z,47.77
2017-05-06T11:32:29.368Z,47.67
2017-05-06T11:33:29.387Z,47.96
2017-05-06T11:34:29.744Z,47.86
2017-05-06T11:35:29.761Z,48.74
2017-05-06T11:36:29.729Z,48.54
2017-05-06T11:37:29.814Z,48.64
2017-05-06T11:38:29.535Z,48.44
2017-05-06T11:39:29.881Z,48.83
2017-05-06T11:40:29.592Z,48.54
2017-05-06T11:41:29.877Z,49.02
2017-05-06T11:42:29.963Z,49.12
2017-05-06T11:43:29.995Z,48.83
2017-05-06T11:44:29.717Z,48.93
2017-05-06T11:45:30.050Z,48.83
2017-05-06T11:46:30.017Z,48.83
2017-05-06T11:47:29.793Z,48.64
2017-05-06T11:48:30.131Z,48.83
2017-05-06T11:49:30.164Z,49.51
2017-05-06T11:50:30.183Z,49.22
2017-05-06T11:51:30.477Z,49.12
2017-05-06T11:52:29.936Z,49.32
2017-05-06T11:53:30.278Z,49.51
2017-05-06T11:54:30.305Z,49.22
2017-05-06T11:55:30.021Z,49.41
2017-05-06T11:56:30.609Z,49.32
2017-05-06T11:57:30.391Z,49.6
2017-05-06T11:58:30.104Z,49.12
2017-05-06T11:59:30.452Z,49.22
2017-05-06T12:00:30.165Z,49.7
2017-05-06T12:01:30.441Z,49.8
2017-05-06T12:02:30.530Z,49.32
2017-05-06T12:03:30.563Z,49.51
2017-05-06T12:04:30.590Z,49.41
2017-05-06T12:05:30.624Z,49.51
2017-05-06T12:06:30.900Z,49.6
2017-05-06T12:07:30.365Z,50.76
2017-05-06T12:08:30.398Z,49.6
2017-05-06T12:09:30.727Z,50.09
2017-05-06T12:10:30.762Z,49.7
2017-05-06T12:11:30.732Z,50.48
2017-05-06T12:12:30.822Z,49.99
2017-05-06T12:13:30.846Z,49.6
2017-05-06T12:14:30.880Z,49.9
2017-05-06T12:15:30.904Z,50.18
2017-05-06T12:16:30.872Z,49.6
2017-05-06T12:17:30.649Z,49.32
2017-05-06T12:18:30.998Z,49.9
2017-05-06T12:19:31.015Z,50.18
2017-05-06T12:20:31.055Z,49.8
2017-05-06T12:21:31.327Z,49.8
2017-05-06T12:22:31.109Z,49.87
2017-05-06T12:23:30.818Z,50.28
2017-05-06T12:24:31.161Z,50.09
2017-05-06T12:25:31.188Z,50.16
2017-05-06T12:26:31.468Z,50.26
2017-05-06T12:27:31.257Z,50.18
2017-05-06T12:28:31.277Z,50.26
2017-05-06T12:29:31.307Z,50.07
2017-05-06T12:30:31.327Z,50.55
2017-05-06T12:31:31.604Z,50.55
2017-05-06T12:32:31.389Z,50.45
2017-05-06T12:33:31.417Z,50.45
2017-05-06T12:34:31.453Z,50.26
2017-05-06T12:35:31.467Z,50.26
2017-05-06T12:36:31.756Z,51.13
2017-05-06T12:37:31.531Z,50.35
2017-05-06T12:38:31.561Z,51.13
2017-05-06T12:39:31.591Z,51.61
2017-05-06T12:40:31.619Z,50.93
2017-05-06T12:41:31.900Z,51.13
2017-05-06T12:42:31.682Z,51.61
2017-05-06T12:43:31.702Z,51.03
2017-05-06T12:44:31.731Z,50.65
2017-05-06T12:45:31.760Z,51.13
2017-05-06T12:46:32.040Z,51.03
2017-05-06T12:47:31.818Z,51.23
2017-05-06T12:48:31.846Z,50.74
2017-05-06T12:49:31.875Z,51.13
2017-05-06T12:50:31.903Z,50.55
2017-05-06T12:51:31.924Z,50.26
2017-05-06T12:52:31.650Z,50.45
2017-05-06T12:53:31.986Z,50.35
2017-05-06T12:54:32.006Z,50.45
2017-05-06T12:55:32.046Z,50.35
2017-05-06T12:56:32.076Z,50.45
2017-05-06T12:57:32.100Z,50.65
2017-05-06T12:58:32.130Z,50.45
2017-05-06T12:59:32.150Z,50.26